This is the latest recevied weather packets stored in our database for station/object OH1KK. If no packets are shown the sender has not sent any weather packets the latest 10 day(s).
| Time | Temp. | Humidity | Pressure | Rain* | Wind** | Luminosity | Snow |
|---|---|---|---|---|---|---|---|
| 1778104191 | 0° C | 78% | 1005.7 hPa | 0 mm | - | - | - |
| 1778103276 | 0° C | 76% | 1005.7 hPa | 0 mm | - | - | - |
| 1778102361 | 0° C | 77% | 1005.4 hPa | 0 mm | - | - | - |
| 1778101446 | 0° C | 76% | 1005.5 hPa | 0 mm | - | - | - |
| 1778100592 | 0.56° C | 74% | 1005.4 hPa | 0 mm | - | - | - |
| 1778099677 | 0.56° C | 74% | 1005.6 hPa | 0 mm | - | - | - |
| 1778098762 | 1.11° C | 72% | 1005.5 hPa | 0 mm | - | - | - |
| 1778097846 | 1.67° C | 70% | 1005.3 hPa | 0 mm | - | - | - |
| 1778096993 | 2.22° C | 68% | 1005.4 hPa | 0 mm | - | - | - |
| 1778096078 | 2.78° C | 64% | 1005.2 hPa | 0 mm | - | - | - |
| 1778095162 | 3.89° C | 60% | 1005.1 hPa | 0 mm | - | - | - |
| 1778094247 | 5° C | 56% | 1004.9 hPa | 0 mm | - | - | - |
| 1778093395 | 5.56° C | 55% | 1004.8 hPa | 0 mm | - | - | - |
| 1778092478 | 6.11° C | 54% | 1004.8 hPa | 0 mm | - | - | - |
| 1778091564 | 6.67° C | 53% | 1004.7 hPa | 0 mm | - | - | - |
| 1778090648 | 7.22° C | 51% | 1004.5 hPa | 0 mm | - | - | - |
| 1778089795 | 7.78° C | 51% | 1004.2 hPa | 0 mm | - | - | - |
| 1778088880 | 7.78° C | 52% | 1004.1 hPa | 0 mm | - | - | - |
| 1778087965 | 7.22° C | 53% | 1004 hPa | 0 mm | - | - | - |
| 1778087050 | 7.22° C | 52% | 1003.9 hPa | 0 mm | - | - | - |
| 1778085281 | 7.78° C | 50% | 1003.5 hPa | 0 mm | - | - | - |
| 1778084366 | 7.22° C | 50% | 1003.6 hPa | 0 mm | - | - | - |
| 1778083451 | 8.33° C | 47% | 1003.5 hPa | 0 mm | - | - | - |
| 1778082597 | 8.89° C | 45% | 1003.5 hPa | 0 mm | - | - | - |
| 1778081682 | 8.89° C | 47% | 1003.2 hPa | 0 mm | - | - | - |
* Rain latest hour (hover to see other rain measurements)
** Current wind speed in m/s (hover to see current wind gust speed)